Time;durP1;ratioP1;P1;durP2;ratioP2;P2;SDS_P1;SDS_P2;PMS_P1;PMS_P2;Temp;Humidity;BMP_temperature;BMP_pressure;BME280_temperature;BME280_humidity;BME280_pressure;Samples;Min_cycle;Max_cycle;Signal;HPM_P1;HPM_P2
2023/05/03 00:01:19;;;;;;;6.88;2.45;;;;;;;7.98;87.70;102784.16;5265244;28;20024;-69
2023/05/03 00:03:51;;;;;;;6.82;2.30;;;;;;;7.94;87.91;102780.81;5265706;28;20020;-69
2023/05/03 00:06:23;;;;;;;4.85;2.15;;;;;;;7.92;89.14;102779.22;5266765;28;20054;-69
2023/05/03 00:08:54;;;;;;;8.40;2.42;;;;;;;8.02;87.98;102781.34;5265882;28;20044;-69
2023/05/03 00:11:25;;;;;;;9.10;2.35;;;;;;;7.95;87.15;102792.09;5269641;28;20107;-69
2023/05/03 00:13:57;;;;;;;3.03;1.90;;;;;;;7.96;86.29;102792.06;5265920;28;20021;-69
2023/05/03 00:16:28;;;;;;;5.63;2.03;;;;;;;8.10;87.44;102783.63;5267679;28;20478;-69
2023/05/03 00:18:59;;;;;;;6.22;2.42;;;;;;;8.03;86.88;102787.41;5267727;28;20543;-69
2023/05/03 00:21:31;;;;;;;6.82;2.35;;;;;;;7.94;86.70;102793.03;5265803;28;20493;-68
2023/05/03 00:24:02;;;;;;;4.30;2.05;;;;;;;7.89;85.93;102767.13;5266961;28;20020;-69
2023/05/03 00:26:34;;;;;;;4.88;2.50;;;;;;;8.02;88.13;102788.31;5266240;28;20090;-69
2023/05/03 00:29:05;;;;;;;4.45;2.38;;;;;;;7.83;86.45;102774.38;5268045;28;20032;-69
2023/05/03 00:31:36;;;;;;;4.45;2.25;;;;;;;7.92;88.01;102787.88;5267237;28;20085;-69
2023/05/03 00:34:07;;;;;;;5.60;2.58;;;;;;;7.93;88.77;102781.75;5269141;28;20039;-69
2023/05/03 00:36:39;;;;;;;4.25;2.30;;;;;;;7.75;88.50;102779.91;5268036;28;20129;-69
2023/05/03 00:39:11;;;;;;;4.90;2.88;;;;;;;7.86;88.03;102769.88;5266241;28;20036;-69
2023/05/03 00:41:42;;;;;;;5.00;2.30;;;;;;;7.84;84.84;102781.28;5267297;28;20036;-69
2023/05/03 00:44:13;;;;;;;3.97;2.13;;;;;;;7.83;86.31;102787.41;5270381;28;21164;-69
2023/05/03 00:46:44;;;;;;;7.65;2.50;;;;;;;7.77;87.57;102791.16;5272946;28;20038;-69
2023/05/03 00:49:16;;;;;;;4.60;2.35;;;;;;;7.73;89.73;102787.81;5270911;28;20037;-69
2023/05/03 00:51:48;;;;;;;5.30;2.28;;;;;;;7.76;89.10;102786.81;5272298;28;20498;-69
2023/05/03 00:54:20;;;;;;;6.20;2.60;;;;;;;7.69;87.77;102783.63;5268020;28;20068;-69
2023/05/03 00:56:51;;;;;;;4.65;2.40;;;;;;;7.62;88.89;102781.34;5272006;28;20028;-69
2023/05/03 00:59:23;;;;;;;5.63;2.60;;;;;;;7.61;88.98;102771.81;5270327;28;20040;-69
2023/05/03 01:01:54;;;;;;;4.70;2.40;;;;;;;7.63;88.09;102780.44;5272168;28;20029;-69
2023/05/03 01:04:26;;;;;;;5.50;2.90;;;;;;;7.65;87.33;102775.97;5272616;28;20048;-69
2023/05/03 01:07:13;;;;;;;4.90;2.35;;;;;;;7.82;87.37;102767.47;5275613;28;20032;-69
2023/05/03 01:09:57;;;;;;;6.03;2.97;;;;;;;7.75;88.99;102772.09;5274524;28;20028;-69
2023/05/03 01:12:55;;;;;;;3.50;2.22;;;;;;;7.92;88.21;102772.22;5271260;28;21395;-68
2023/05/03 01:15:44;;;;;;;4.35;2.35;;;;;;;7.79;88.29;102782.31;5273276;28;20122;-69
2023/05/03 01:18:22;;;;;;;5.07;2.50;;;;;;;7.71;89.16;102780.94;5273014;28;20032;-69
2023/05/03 01:20:54;;;;;;;4.38;2.70;;;;;;;7.65;90.03;102783.81;5271605;28;20070;-68
2023/05/03 01:23:32;;;;;;;4.65;2.40;;;;;;;7.59;88.11;102786.69;5273596;28;20029;-68
2023/05/03 01:26:26;;;;;;;5.82;2.65;;;;;;;7.69;88.85;102777.53;5272828;28;20481;-68
2023/05/03 01:28:59;;;;;;;7.00;2.40;;;;;;;7.42;90.67;102784.75;5270654;28;20562;-68
2023/05/03 01:31:41;;;;;;;7.03;3.35;;;;;;;7.57;90.21;102792.78;5272343;28;20032;-68
2023/05/03 01:34:20;;;;;;;4.15;2.17;;;;;;;7.52;90.74;102786.94;5273288;28;20032;-68
2023/05/03 01:36:56;;;;;;;3.60;2.28;;;;;;;7.43;92.39;102789.91;5269959;28;20043;-68
2023/05/03 01:39:58;;;;;;;5.80;2.47;;;;;;;7.63;90.48;102783.88;5270274;28;20032;-68
2023/05/03 01:42:31;;;;;;;7.55;2.97;;;;;;;7.35;91.89;102791.13;5270407;28;20032;-67
2023/05/03 01:45:04;;;;;;;3.72;2.50;;;;;;;7.35;92.77;102791.13;5272770;28;20020;-68
2023/05/03 01:47:35;;;;;;;5.85;2.50;;;;;;;7.30;92.26;102786.09;5271336;28;20489;-68
2023/05/03 01:50:06;;;;;;;4.07;2.50;;;;;;;7.28;92.61;102786.16;5271317;28;20036;-68
2023/05/03 01:52:38;;;;;;;6.50;2.65;;;;;;;7.31;92.96;102787.78;5272033;28;20032;-68
2023/05/03 01:55:09;;;;;;;7.10;3.05;;;;;;;7.28;93.34;102786.16;5270956;28;20497;-68
2023/05/03 01:57:40;;;;;;;5.38;2.50;;;;;;;7.26;93.99;102792.34;5270366;28;20035;-68
2023/05/03 02:00:12;;;;;;;5.93;3.00;;;;;;;7.30;93.82;102786.94;5270798;28;20715;-68
2023/05/03 02:02:43;;;;;;;8.95;3.33;;;;;;;7.25;92.93;102791.50;5272263;28;20563;-68
2023/05/03 02:05:15;;;;;;;7.03;2.80;;;;;;;7.34;93.63;102792.03;5269865;28;20394;-68
2023/05/03 02:07:46;;;;;;;3.53;2.25;;;;;;;7.15;93.17;102771.06;5271148;28;20116;-68
2023/05/03 02:10:17;;;;;;;5.45;2.67;;;;;;;7.19;93.22;102793.50;5270271;28;20056;-68
2023/05/03 02:12:49;;;;;;;6.18;2.63;;;;;;;7.17;92.20;102790.97;5268037;28;20033;-69
2023/05/03 02:15:20;;;;;;;7.93;2.70;;;;;;;7.19;92.85;102783.06;5270714;28;20032;-68
2023/05/03 02:17:52;;;;;;;9.98;3.13;;;;;;;7.13;93.86;102786.78;5270589;28;20020;-68
2023/05/03 02:20:24;;;;;;;4.15;2.10;;;;;;;7.13;92.62;102785.94;5270008;28;20032;-68
2023/05/03 02:22:55;;;;;;;14.68;3.40;;;;;;;7.13;93.13;102784.16;5271058;28;20166;-68
2023/05/03 02:25:26;;;;;;;6.28;2.90;;;;;;;7.09;93.44;102777.38;5269985;28;20462;-68
2023/05/03 02:27:57;;;;;;;5.78;2.95;;;;;;;7.10;94.05;102773.00;5271864;28;20622;-68
2023/05/03 02:30:29;;;;;;;6.45;2.55;;;;;;;7.04;93.47;102774.09;5268114;28;20394;-68
2023/05/03 02:33:00;;;;;;;4.80;2.75;;;;;;;6.98;93.20;102769.97;5264675;28;20029;-68
2023/05/03 02:35:32;;;;;;;3.60;2.60;;;;;;;6.95;94.10;102762.28;5271935;28;20032;-68
2023/05/03 02:38:03;;;;;;;3.33;2.45;;;;;;;6.99;96.15;102749.97;5271973;28;20020;-68
2023/05/03 02:40:35;;;;;;;5.22;2.85;;;;;;;7.09;95.95;102748.72;5270174;28;20063;-68
2023/05/03 02:43:06;;;;;;;4.47;3.05;;;;;;;6.96;94.72;102745.72;5268991;28;20024;-68
2023/05/03 02:45:37;;;;;;;6.85;3.00;;;;;;;6.93;94.13;102745.88;5268745;28;20073;-68
2023/05/03 02:48:09;;;;;;;5.57;2.85;;;;;;;6.81;94.86;102744.56;5271616;28;20012;-68
2023/05/03 02:50:41;;;;;;;5.18;2.83;;;;;;;6.75;96.45;102741.34;5268448;28;20032;-68
2023/05/03 02:53:12;;;;;;;6.85;3.13;;;;;;;6.80;98.22;102723.78;5270994;28;20135;-68
2023/05/03 02:55:43;;;;;;;6.68;2.47;;;;;;;6.75;97.52;102723.97;5271409;28;20016;-68
2023/05/03 02:58:15;;;;;;;6.88;3.17;;;;;;;6.88;99.26;102720.88;5269402;28;20123;-68
2023/05/03 03:00:46;;;;;;;6.13;2.70;;;;;;;6.79;97.52;102725.53;5267395;28;20486;-69
2023/05/03 03:03:17;;;;;;;5.57;2.85;;;;;;;6.76;97.29;102722.22;5270401;28;20123;-68
2023/05/03 03:05:49;;;;;;;6.55;3.20;;;;;;;6.75;98.07;102733.53;5271318;28;20028;-68
2023/05/03 03:08:20;;;;;;;6.35;3.15;;;;;;;6.75;96.56;102738.75;5269434;28;20036;-68
2023/05/03 03:10:51;;;;;;;7.05;3.58;;;;;;;6.76;97.05;102745.66;5270046;28;20025;-68
2023/05/03 03:13:23;;;;;;;4.85;2.83;;;;;;;6.70;98.52;102735.47;5269747;28;20043;-68
2023/05/03 03:15:54;;;;;;;7.50;3.53;;;;;;;6.74;96.83;102747.44;5269547;28;20043;-68
2023/05/03 03:18:25;;;;;;;5.63;3.25;;;;;;;6.69;97.24;102745.03;5269493;28;20556;-68
2023/05/03 03:20:56;;;;;;;3.85;2.78;;;;;;;6.69;98.27;102742.44;5269526;28;20095;-68
2023/05/03 03:23:28;;;;;;;5.63;2.97;;;;;;;6.65;98.74;102734.78;5269078;28;20040;-68
2023/05/03 03:26:00;;;;;;;5.38;3.22;;;;;;;6.64;98.90;102733.94;5270111;28;20489;-68
2023/05/03 03:28:31;;;;;;;6.50;3.20;;;;;;;6.62;98.50;102750.53;5269461;28;20075;-68
2023/05/03 03:31:02;;;;;;;6.88;3.30;;;;;;;6.56;97.30;102762.88;5268040;28;20491;-68
2023/05/03 03:33:34;;;;;;;10.00;4.13;;;;;;;6.63;97.36;102752.22;5265728;28;20363;-68
2023/05/03 03:36:06;;;;;;;6.90;3.28;;;;;;;6.58;99.13;102755.00;5270476;28;20136;-68
2023/05/03 03:38:38;;;;;;;6.03;2.92;;;;;;;6.55;97.11;102739.50;5269946;28;20025;-68
2023/05/03 03:41:09;;;;;;;7.43;2.75;;;;;;;6.50;98.47;102749.22;5266831;28;20036;-68
2023/05/03 03:43:40;;;;;;;5.68;2.80;;;;;;;6.55;98.74;102749.91;5270615;28;20024;-68
2023/05/03 03:46:12;;;;;;;6.07;3.45;;;;;;;6.45;98.03;102744.22;5270283;28;20024;-68
2023/05/03 03:48:43;;;;;;;9.18;3.85;;;;;;;6.46;98.01;102747.66;5268317;28;20183;-68
2023/05/03 03:51:14;;;;;;;8.63;3.75;;;;;;;6.42;99.00;102741.72;5267153;28;20024;-68
2023/05/03 03:53:46;;;;;;;7.85;3.00;;;;;;;6.28;98.77;102733.56;5269912;28;20924;-68
2023/05/03 03:56:17;;;;;;;6.43;3.25;;;;;;;6.33;99.32;102739.47;5270702;28;20508;-68
2023/05/03 03:58:49;;;;;;;6.28;3.95;;;;;;;6.39;100.00;102748.78;5270391;28;20028;-68
2023/05/03 04:01:20;;;;;;;7.78;3.58;;;;;;;6.39;99.32;102754.84;5266655;28;20032;-68
2023/05/03 04:03:51;;;;;;;5.38;2.83;;;;;;;6.36;99.00;102760.16;5269460;28;20109;-68
2023/05/03 04:06:23;;;;;;;6.20;3.50;;;;;;;6.32;99.87;102756.81;5269014;28;20027;-68
2023/05/03 04:08:54;;;;;;;6.53;3.70;;;;;;;6.36;99.44;102757.53;5267150;28;20035;-68
2023/05/03 04:11:25;;;;;;;7.90;3.70;;;;;;;6.34;100.00;102767.19;5269250;28;20111;-68
2023/05/03 04:13:56;;;;;;;11.10;4.20;;;;;;;6.31;100.00;102762.06;5270032;28;20021;-68
2023/05/03 04:16:28;;;;;;;6.13;3.70;;;;;;;6.34;99.48;102757.63;5268860;28;20028;-68
2023/05/03 04:19:00;;;;;;;6.72;3.67;;;;;;;6.31;100.00;102770.72;5267519;28;20056;-68
2023/05/03 04:21:31;;;;;;;6.18;3.70;;;;;;;6.39;100.00;102764.41;5268211;28;20029;-68
2023/05/03 04:24:04;;;;;;;8.25;3.72;;;;;;;6.33;98.99;102765.50;5268034;28;20492;-68
2023/05/03 04:26:36;;;;;;;7.93;3.70;;;;;;;6.40;99.70;102758.28;5267685;28;20138;-68
2023/05/03 04:29:09;;;;;;;6.68;4.10;;;;;;;6.35;100.00;102758.47;5268931;28;20036;-68
2023/05/03 04:31:40;;;;;;;6.50;3.58;;;;;;;6.34;100.00;102757.63;5268679;28;20020;-68
2023/05/03 04:34:14;;;;;;;5.80;3.92;;;;;;;6.33;99.75;102765.50;5266829;28;20903;-68
2023/05/03 04:36:46;;;;;;;9.73;4.57;;;;;;;6.28;100.00;102776.03;5268486;28;20028;-68
2023/05/03 04:39:17;;;;;;;6.22;3.60;;;;;;;6.27;100.00;102782.16;5268047;28;20571;-68
2023/05/03 04:41:48;;;;;;;6.47;3.80;;;;;;;6.30;100.00;102787.25;5268101;28;20024;-68
2023/05/03 04:44:19;;;;;;;8.38;4.28;;;;;;;6.35;100.00;102792.31;5268470;28;20052;-68
2023/05/03 04:46:51;;;;;;;11.20;4.25;;;;;;;6.36;100.00;102795.75;5269892;28;20025;-68
2023/05/03 04:49:22;;;;;;;9.50;4.13;;;;;;;6.43;100.00;102805.88;5268177;28;20071;-68
2023/05/03 04:51:54;;;;;;;7.97;3.97;;;;;;;6.52;99.92;102808.19;5268804;28;20043;-68
2023/05/03 04:54:25;;;;;;;8.95;5.25;;;;;;;6.48;99.99;102811.81;5269265;28;20124;-68
2023/05/03 04:56:56;;;;;;;8.20;3.95;;;;;;;6.46;99.52;102818.81;5270281;28;20120;-68
2023/05/03 04:59:28;;;;;;;6.45;4.05;;;;;;;6.54;100.00;102826.34;5268439;28;20037;-68
2023/05/03 05:01:59;;;;;;;9.43;4.40;;;;;;;6.50;100.00;102812.56;5267768;28;20070;-68
2023/05/03 05:04:30;;;;;;;9.25;4.65;;;;;;;6.61;100.00;102832.19;5268060;28;20043;-68
2023/05/03 05:07:02;;;;;;;6.43;4.07;;;;;;;6.68;98.08;102834.50;5269476;28;20031;-67
2023/05/03 05:09:33;;;;;;;6.20;3.92;;;;;;;6.70;98.09;102834.44;5267105;28;20060;-69
2023/05/03 05:12:04;;;;;;;8.40;4.47;;;;;;;6.77;98.95;102828.09;5266776;28;20476;-68
2023/05/03 05:14:36;;;;;;;10.63;4.22;;;;;;;6.76;97.76;102821.19;5268848;28;20115;-67
2023/05/03 05:17:07;;;;;;;6.22;4.05;;;;;;;6.87;97.93;102826.00;5270401;28;20036;-68
2023/05/03 05:19:38;;;;;;;7.82;5.10;;;;;;;6.92;97.21;102831.88;5267458;28;20020;-68
2023/05/03 05:22:10;;;;;;;7.93;3.92;;;;;;;6.92;97.60;102816.25;5269051;28;20029;-68
2023/05/03 05:24:41;;;;;;;6.13;4.30;;;;;;;6.93;96.61;102828.38;5266727;28;20024;-68
2023/05/03 05:27:12;;;;;;;6.28;4.38;;;;;;;7.01;94.45;102826.34;5268985;28;20028;-69
2023/05/03 05:29:43;;;;;;;7.03;3.75;;;;;;;7.01;96.39;102819.38;5265756;28;20020;-69
2023/05/03 05:32:15;;;;;;;9.80;4.93;;;;;;;7.03;95.57;102822.75;5270166;28;20398;-69
2023/05/03 05:34:51;;;;;;;5.85;3.70;;;;;;;7.06;94.58;102821.81;5272626;28;20046;-69
2023/05/03 05:37:23;;;;;;;5.63;4.20;;;;;;;7.14;95.58;102818.91;5268579;28;20066;-69
2023/05/03 05:39:55;;;;;;;5.00;3.50;;;;;;;7.17;95.42;102831.81;5271486;28;20016;-69
2023/05/03 05:42:26;;;;;;;7.95;3.92;;;;;;;7.19;93.96;102820.41;5265789;28;20309;-68
2023/05/03 05:44:57;;;;;;;7.47;4.00;;;;;;;7.15;93.05;102824.03;5269026;28;20040;-68
2023/05/03 05:47:28;;;;;;;6.18;4.00;;;;;;;7.18;94.44;102825.69;5266030;28;20020;-68
2023/05/03 05:50:00;;;;;;;6.80;3.65;;;;;;;7.28;94.11;102827.88;5268545;28;20086;-69
2023/05/03 05:52:31;;;;;;;6.90;4.00;;;;;;;7.38;94.74;102836.16;5271579;28;20107;-68
2023/05/03 05:55:03;;;;;;;7.57;4.38;;;;;;;7.41;93.74;102830.00;5271043;28;20041;-69
2023/05/03 05:57:34;;;;;;;7.65;4.35;;;;;;;7.52;94.83;102838.25;5269954;28;21189;-68
2023/05/03 06:00:13;;;;;;;11.02;4.38;;;;;;;7.55;93.61;102838.13;5267575;28;20065;-68
2023/05/03 06:02:44;;;;;;;6.82;3.97;;;;;;;7.61;93.38;102837.88;5268985;28;20367;-68
2023/05/03 06:05:16;;;;;;;6.68;3.92;;;;;;;7.70;92.45;102837.50;5271756;28;20028;-69
2023/05/03 06:07:48;;;;;;;8.00;3.95;;;;;;;7.82;92.31;102835.31;5264654;28;20061;-68
2023/05/03 06:10:19;;;;;;;7.20;4.18;;;;;;;7.95;93.21;102833.88;5256877;28;20527;-68
2023/05/03 06:12:50;;;;;;;10.30;4.60;;;;;;;7.98;91.27;102831.13;5235752;28;20097;-69
2023/05/03 06:15:22;;;;;;;7.10;3.95;;;;;;;8.08;89.78;102829.00;5238819;28;20532;-69
2023/05/03 06:17:53;;;;;;;7.30;3.83;;;;;;;8.13;88.56;102813.97;5239417;28;20039;-68
2023/05/03 06:20:25;;;;;;;5.85;3.83;;;;;;;8.28;91.63;102816.78;5259420;28;20032;-69
2023/05/03 06:22:56;;;;;;;7.72;3.85;;;;;;;8.40;88.06;102810.19;5269201;28;20043;-69
2023/05/03 06:25:27;;;;;;;8.70;4.85;;;;;;;8.59;87.69;102819.81;5267620;28;20169;-69
2023/05/03 06:27:58;;;;;;;8.20;4.35;;;;;;;8.60;87.30;102818.91;5267838;28;20016;-69
2023/05/03 06:30:30;;;;;;;5.88;4.40;;;;;;;8.71;85.30;102820.13;5267929;28;20035;-69
2023/05/03 06:33:01;;;;;;;8.07;4.13;;;;;;;8.77;86.25;102819.00;5267861;28;20106;-69
2023/05/03 06:35:32;;;;;;;8.10;3.97;;;;;;;8.86;84.84;102820.34;5266750;28;20027;-69
2023/05/03 06:38:04;;;;;;;7.15;3.95;;;;;;;8.96;85.66;102806.78;5268412;28;20029;-69
2023/05/03 06:40:35;;;;;;;7.45;4.03;;;;;;;9.09;82.73;102811.41;5261875;28;20032;-69
2023/05/03 06:43:07;;;;;;;6.30;4.20;;;;;;;9.19;83.35;102817.91;5271671;28;20029;-69
2023/05/03 06:45:40;;;;;;;9.00;4.18;;;;;;;9.27;81.73;102811.41;5269602;28;20074;-69
2023/05/03 06:48:11;;;;;;;8.65;4.40;;;;;;;9.37;82.24;102810.97;5269223;28;20406;-69
2023/05/03 06:50:43;;;;;;;8.13;4.15;;;;;;;9.54;80.66;102804.91;5268216;28;20032;-69
2023/05/03 06:53:14;;;;;;;7.93;4.47;;;;;;;9.64;77.84;102804.38;5269040;28;20043;-69
2023/05/03 06:55:45;;;;;;;8.15;4.47;;;;;;;9.82;77.40;102800.00;5270423;28;20032;-69
2023/05/03 06:58:17;;;;;;;8.02;3.60;;;;;;;9.92;76.59;102798.59;5264779;28;20038;-69
2023/05/03 07:00:52;;;;;;;6.50;4.03;;;;;;;10.14;77.20;102805.38;5270563;28;20448;-69
2023/05/03 07:03:23;;;;;;;7.93;4.25;;;;;;;10.13;74.59;102795.81;5266485;28;20037;-70
2023/05/03 07:05:54;;;;;;;9.20;4.10;;;;;;;10.24;72.03;102798.72;5259867;28;20462;-69
2023/05/03 07:08:26;;;;;;;5.90;3.60;;;;;;;10.41;70.77;102798.72;5267696;28;20060;-69
2023/05/03 07:10:57;;;;;;;7.88;3.85;;;;;;;10.67;73.40;102799.94;5267224;28;20111;-70
2023/05/03 07:13:29;;;;;;;7.88;3.92;;;;;;;10.80;72.02;102805.38;5268113;28;20330;-69
2023/05/03 07:16:00;;;;;;;9.98;4.82;;;;;;;11.01;70.73;102802.50;5264140;28;20035;-69
2023/05/03 07:18:31;;;;;;;5.78;3.78;;;;;;;11.11;69.72;102796.66;5256789;28;20021;-69
2023/05/03 07:21:05;;;;;;;8.63;4.25;;;;;;;11.21;68.37;102802.22;5262279;28;20031;-70
2023/05/03 07:23:36;;;;;;;6.60;3.47;;;;;;;11.32;68.34;102806.88;5265074;28;20043;-69
2023/05/03 07:26:07;;;;;;;5.53;4.00;;;;;;;11.39;65.89;102801.19;5269121;28;20020;-70
2023/05/03 07:28:38;;;;;;;8.63;4.30;;;;;;;11.35;64.13;102791.81;5265612;28;20081;-69
2023/05/03 07:31:10;;;;;;;9.20;4.85;;;;;;;11.44;64.67;102800.94;5263018;28;20027;-69
2023/05/03 07:33:42;;;;;;;7.53;3.95;;;;;;;11.65;68.04;102797.06;5269865;28;20067;-69
2023/05/03 07:36:13;;;;;;;9.65;4.47;;;;;;;11.82;67.54;102789.97;5264123;28;20123;-70
2023/05/03 07:38:45;;;;;;;7.03;4.15;;;;;;;12.00;64.46;102786.28;5264160;28;20595;-69
2023/05/03 07:41:17;;;;;;;7.60;4.13;;;;;;;12.05;64.15;102779.00;5267213;28;20082;-70
2023/05/03 07:43:48;;;;;;;8.35;3.92;;;;;;;12.15;62.01;102779.28;5266912;28;20568;-69
2023/05/03 07:46:19;;;;;;;6.78;3.95;;;;;;;12.15;60.99;102780.13;5266201;28;20462;-69
2023/05/03 07:48:50;;;;;;;8.80;4.30;;;;;;;12.30;59.95;102775.72;5266676;28;20032;-69
2023/05/03 07:51:22;;;;;;;5.00;3.50;;;;;;;12.20;58.60;102771.97;5268628;28;20028;-69
2023/05/03 07:53:55;;;;;;;7.03;3.50;;;;;;;12.37;59.98;102770.94;5263779;28;21069;-70
2023/05/03 07:56:27;;;;;;;5.93;3.50;;;;;;;12.59;59.21;102762.56;5262009;28;20041;-69
2023/05/03 07:58:59;;;;;;;5.47;3.90;;;;;;;12.58;56.12;102764.34;5264229;28;20379;-69
2023/05/03 08:01:30;;;;;;;6.95;3.70;;;;;;;12.67;57.04;102760.28;5266507;28;20078;-70
2023/05/03 08:04:01;;;;;;;4.40;3.00;;;;;;;12.79;55.44;102756.88;5266192;28;20033;-70
2023/05/03 08:06:34;;;;;;;7.78;3.38;;;;;;;12.83;54.30;102754.88;5268278;28;20016;-69
2023/05/03 08:09:05;;;;;;;5.93;3.00;;;;;;;13.02;54.40;102754.56;5265710;28;20027;-69
2023/05/03 08:11:36;;;;;;;7.82;3.58;;;;;;;12.94;52.62;102748.94;5262274;28;20029;-70
2023/05/03 08:14:08;;;;;;;6.57;3.17;;;;;;;12.97;53.25;102746.13;5264603;28;20440;-71
2023/05/03 08:16:39;;;;;;;8.90;3.33;;;;;;;13.03;53.67;102730.78;5264491;28;20032;-70
2023/05/03 08:19:10;;;;;;;6.10;3.28;;;;;;;13.06;53.10;102729.72;5262718;28;20032;-71
2023/05/03 08:21:42;;;;;;;7.10;3.47;;;;;;;13.15;54.24;102737.03;5260789;28;20646;-69
2023/05/03 08:24:13;;;;;;;8.02;3.33;;;;;;;13.33;52.89;102741.13;5265494;28;20027;-70
2023/05/03 08:26:45;;;;;;;6.03;3.00;;;;;;;13.44;51.29;102734.28;5265186;28;20544;-70
2023/05/03 08:29:16;;;;;;;6.82;3.33;;;;;;;13.54;50.28;102736.19;5265752;28;20048;-71
2023/05/03 08:31:47;;;;;;;4.88;2.63;;;;;;;13.52;49.92;102729.34;5267052;28;21526;-69
2023/05/03 08:34:18;;;;;;;7.28;3.13;;;;;;;13.59;49.92;102739.34;5265249;28;20547;-70
2023/05/03 08:36:50;;;;;;;4.25;3.08;;;;;;;13.84;52.31;102727.16;5266335;28;20039;-70
2023/05/03 08:39:26;;;;;;;6.57;2.58;;;;;;;13.76;47.70;102721.59;5251707;28;20919;-70
2023/05/03 08:41:57;;;;;;;7.00;3.15;;;;;;;13.85;46.93;102720.94;5257345;28;20032;-69
2023/05/03 08:44:30;;;;;;;5.85;2.83;;;;;;;13.97;48.00;102724.53;5263869;28;20040;-70
2023/05/03 08:47:03;;;;;;;4.35;3.28;;;;;;;14.02;45.74;102722.44;5260199;28;20077;-71
2023/05/03 08:49:36;;;;;;;7.47;3.30;;;;;;;13.91;45.85;102728.44;5261190;28;20021;-71
2023/05/03 08:52:10;;;;;;;5.30;2.95;;;;;;;14.09;45.22;102728.94;5263889;28;20031;-70
2023/05/03 08:54:41;;;;;;;5.68;3.10;;;;;;;14.06;46.10;102731.81;5265747;28;20033;-70
2023/05/03 08:57:14;;;;;;;8.10;3.42;;;;;;;14.07;45.53;102744.88;5266727;28;20028;-70
2023/05/03 08:59:49;;;;;;;9.53;3.20;;;;;;;14.21;46.41;102743.06;5263346;28;20025;-69
2023/05/03 09:02:20;;;;;;;5.68;2.88;;;;;;;14.46;47.18;102744.81;5263450;28;20093;-69
2023/05/03 09:04:52;;;;;;;6.05;2.70;;;;;;;14.60;46.50;102728.88;5263562;28;20052;-69
2023/05/03 09:07:23;;;;;;;5.55;2.60;;;;;;;14.77;44.95;102732.91;5264787;28;20043;-69
2023/05/03 09:09:56;;;;;;;4.82;2.72;;;;;;;14.84;45.06;102740.28;5268923;28;20397;-70
2023/05/03 09:12:35;;;;;;;7.05;3.28;;;;;;;14.98;45.66;102743.72;5273371;28;20470;-71
2023/05/03 09:15:07;;;;;;;6.25;3.00;;;;;;;14.98;45.26;102726.09;5266419;28;20035;-70
2023/05/03 09:17:39;;;;;;;5.00;3.03;;;;;;;15.11;44.83;102739.22;5270530;28;20086;-69
2023/05/03 09:20:10;;;;;;;8.05;3.17;;;;;;;15.21;43.79;102729.66;5269913;28;20020;-68
2023/05/03 09:22:51;;;;;;;9.68;2.97;;;;;;;15.29;45.45;102714.09;5270176;28;20056;-69
2023/05/03 09:25:22;;;;;;;6.03;3.30;;;;;;;15.38;44.60;102725.78;5269060;28;20488;-69
2023/05/03 09:28:00;;;;;;;6.32;3.00;;;;;;;15.70;45.02;102728.63;5262596;28;20028;-72
2023/05/03 09:30:32;;;;;;;4.28;2.88;;;;;;;15.54;42.73;102734.22;5268807;28;20021;-71
2023/05/03 09:33:03;;;;;;;6.80;3.30;;;;;;;15.50;42.66;102731.94;5270198;28;20327;-70
2023/05/03 09:35:34;;;;;;;7.55;2.90;;;;;;;15.64;41.90;102728.22;5267827;28;20040;-69
2023/05/03 09:38:06;;;;;;;5.80;2.75;;;;;;;15.79;43.04;102721.78;5268655;28;20348;-69
2023/05/03 09:40:45;;;;;;;6.03;3.30;;;;;;;15.81;43.78;102733.94;5267970;28;20107;-72
2023/05/03 09:43:16;;;;;;;5.25;2.75;;;;;;;15.77;43.08;102729.00;5269139;28;20028;-69
2023/05/03 09:45:48;;;;;;;6.55;3.20;;;;;;;15.68;41.81;102730.56;5269038;28;20020;-69
2023/05/03 09:48:22;;;;;;;7.30;3.40;;;;;;;15.54;41.24;102730.72;5271381;28;20028;-70
2023/05/03 09:50:53;;;;;;;5.82;3.38;;;;;;;15.41;42.36;102728.16;5265076;28;20553;-69
2023/05/03 09:53:26;;;;;;;7.40;3.20;;;;;;;15.51;41.71;102715.94;5269569;28;20058;-68
2023/05/03 09:56:01;;;;;;;5.70;2.88;;;;;;;15.56;40.96;102708.50;5265349;28;20024;-69
2023/05/03 09:58:33;;;;;;;6.20;3.08;;;;;;;15.69;40.98;102708.47;5269694;28;20028;-70
2023/05/03 10:01:05;;;;;;;6.78;2.65;;;;;;;16.01;42.24;102713.88;5269878;28;20106;-69
2023/05/03 10:03:42;;;;;;;7.55;3.22;;;;;;;16.12;40.55;102712.19;5270823;28;20020;-73
2023/05/03 10:06:26;;;;;;;7.45;2.92;;;;;;;16.30;42.08;102706.28;5261822;28;20028;-69
2023/05/03 10:09:11;;;;;;;5.38;2.90;;;;;;;16.32;41.19;102710.63;5269711;28;20070;-70
2023/05/03 10:11:47;;;;;;;5.35;3.20;;;;;;;15.80;38.97;102705.00;5269747;28;20086;-71
2023/05/03 10:14:20;;;;;;;6.07;3.50;;;;;;;15.97;41.09;102701.03;5268232;28;20040;-71
2023/05/03 10:16:58;;;;;;;7.80;3.67;;;;;;;16.32;40.33;102698.22;5268323;28;20024;-70
2023/05/03 10:19:47;;;;;;;5.18;3.10;;;;;;;16.57;40.06;102705.06;5269597;28;20052;-70
2023/05/03 10:22:18;;;;;;;6.25;3.15;;;;;;;16.51;40.80;102708.19;5267236;28;20028;-69
2023/05/03 10:24:55;;;;;;;5.93;3.00;;;;;;;16.87;40.29;102712.34;5266898;28;20542;-70
2023/05/03 10:27:51;;;;;;;5.85;3.13;;;;;;;17.11;39.84;102706.81;5268719;28;20063;-70
2023/05/03 10:30:39;;;;;;;4.43;2.90;;;;;;;17.01;40.46;102705.91;5259849;28;20093;-71
2023/05/03 10:33:10;;;;;;;5.68;3.22;;;;;;;17.10;38.31;102706.94;5268610;28;20058;-72
2023/05/03 10:35:48;;;;;;;5.57;2.90;;;;;;;17.02;39.66;102707.59;5262541;28;20056;-72
2023/05/03 10:38:20;;;;;;;5.00;2.80;;;;;;;16.96;38.48;102713.38;5266703;28;20505;-69
2023/05/03 10:40:54;;;;;;;5.95;3.45;;;;;;;16.93;37.44;102705.69;5268905;28;20835;-70
2023/05/03 10:43:30;;;;;;;6.95;3.17;;;;;;;17.30;39.22;102694.69;5267348;28;20083;-71
2023/05/03 10:46:03;;;;;;;5.90;3.40;;;;;;;17.41;38.33;102694.63;5268692;28;20032;-70
2023/05/03 10:48:34;;;;;;;;;;;;;;;18.24;38.88;102702.44;5266950;28;20517;-70
2023/05/03 10:51:37;;;;;;;6.03;3.13;;;;;;;17.87;38.11;102698.66;5267700;28;19921;-69
2023/05/03 10:54:08;;;;;;;6.90;3.13;;;;;;;17.50;38.28;102700.00;5266999;28;20307;-70
2023/05/03 10:56:54;;;;;;;4.45;2.90;;;;;;;17.81;38.20;102704.53;5269458;28;21160;-70
2023/05/03 10:59:45;;;;;;;5.85;3.40;;;;;;;17.77;38.42;102703.94;5269673;28;20021;-70
2023/05/03 11:02:21;;;;;;;7.03;3.17;;;;;;;17.59;38.57;102708.97;5265175;28;20063;-70
2023/05/03 11:04:57;;;;;;;6.03;3.00;;;;;;;17.55;37.11;102698.75;5268351;28;20581;-71
2023/05/03 11:07:28;;;;;;;5.35;3.30;;;;;;;17.62;38.50;102695.44;5264288;28;20035;-70
2023/05/03 11:10:00;;;;;;;7.25;3.53;;;;;;;17.79;39.90;102682.59;5267312;28;20025;-72
2023/05/03 11:12:31;;;;;;;5.75;3.53;;;;;;;17.55;38.48;102670.44;5269822;28;20334;-70
2023/05/03 11:15:02;;;;;;;8.25;3.15;;;;;;;17.89;39.12;102678.16;5257204;28;20099;-70
2023/05/03 11:17:34;;;;;;;7.35;3.72;;;;;;;17.75;37.78;102676.69;5264617;28;20044;-70
2023/05/03 11:20:09;;;;;;;5.70;3.60;;;;;;;18.02;38.06;102680.59;5265186;28;20575;-70
2023/05/03 11:22:40;;;;;;;5.57;3.20;;;;;;;17.94;38.00;102675.94;5268285;28;20047;-72
2023/05/03 11:25:12;;;;;;;5.85;3.33;;;;;;;18.12;37.86;102670.84;5265129;28;20020;-70
2023/05/03 11:27:45;;;;;;;6.75;4.10;;;;;;;17.90;37.16;102662.13;5264354;28;20039;-73
2023/05/03 11:30:17;;;;;;;6.40;3.47;;;;;;;18.05;37.85;102651.16;5263568;28;20424;-70
2023/05/03 11:32:48;;;;;;;7.35;3.53;;;;;;;18.21;36.78;102664.72;5262042;28;20039;-72
2023/05/03 11:35:22;;;;;;;6.88;3.60;;;;;;;18.24;37.50;102654.69;5265005;28;20341;-71
2023/05/03 11:37:54;;;;;;;4.82;3.75;;;;;;;18.00;36.74;102646.25;5265741;28;20113;-72
2023/05/03 11:40:26;;;;;;;7.72;3.55;;;;;;;18.20;37.59;102666.53;5252102;28;20119;-72
2023/05/03 11:42:59;;;;;;;6.37;3.73;;;;;;;18.06;36.73;102655.47;5268096;28;20058;-70
2023/05/03 11:45:39;;;;;;;6.07;3.70;;;;;;;17.99;36.10;102657.81;5264289;28;20069;-71
2023/05/03 11:48:11;;;;;;;7.22;3.70;;;;;;;17.85;37.74;102656.38;5263360;28;20055;-71
2023/05/03 11:50:55;;;;;;;6.35;3.35;;;;;;;18.10;37.62;102641.78;5267181;28;20033;-71
2023/05/03 11:53:26;;;;;;;5.75;3.33;;;;;;;18.10;36.17;102638.31;5263024;28;20048;-71
2023/05/03 11:55:59;;;;;;;8.95;3.53;;;;;;;18.20;36.14;102637.34;5265783;28;20516;-70